Blue Star 1 — SWET — position and weather

sailwx.info

Track history (hours):
 
Tides and Currents Weather Stations Pressure Air Temp Water Temp Dewpoint Dewpoint Depression Visibility Wind Speed Wind Dir Waves Ship Positions

Blue Star 1

Last reported at 2017-Feb-25 13:34 UTC. Time now 2017-Feb-25 13:48 UTC.
Position N 37°21' E 024°55'.

Length 176 m; draft 6.5 m.

Type: Passenger vessel. MMSI: 239710000.

Date/timePositionNaut miles runAvg speedWind from/ knotsBaromVisibWave heightAir tempDewpointWater temp
2017-Feb-25 13:34N 37°21' E 024°55'5124.7
2017-Feb-25 11:29N 37°38' E 023°54'1920.5
2017-Feb-25 10:34N 37°51' E 023°37'6 5.5
2017-Feb-25 09:33N 37°56' E 023°38'0 0.0
2017-Feb-25 08:31N 37°56' E 023°38'0 0.0
2017-Feb-25 07:31N 37°56' E 023°38'0 0.0
2017-Feb-25 06:31N 37°56' E 023°38'0 0.0
2017-Feb-25 05:33N 37°56' E 023°38'0 0.0
2017-Feb-25 04:33N 37°56' E 023°38'1211.6
2017-Feb-25 03:34N 37°46' E 023°43'2619.1
2017-Feb-25 02:11N 37°44' E 024°16'19 0.6
2017-Feb-23 19:32N 37°38' E 023°53'1616.9
2017-Feb-23 18:33N 37°49' E 023°38'8 7.6
2017-Feb-23 17:33N 37°56' E 023°38'0 0.0
2017-Feb-23 16:33N 37°56' E 023°38'0 0.0
2017-Feb-23 15:33N 37°56' E 023°38'0 0.0
2017-Feb-23 14:33N 37°56' E 023°38'0 0.0
2017-Feb-23 13:24N 37°56' E 023°38'0 0.0
2017-Feb-23 12:33N 37°56' E 023°38'0 0.0
2017-Feb-23 11:33N 37°56' E 023°38'0 0.0
2017-Feb-23 10:33N 37°56' E 023°38'0 0.0
2017-Feb-23 09:29N 37°56' E 023°38'0 0.0
2017-Feb-23 08:32N 37°56' E 023°38'0 0.0
2017-Feb-23 07:32N 37°56' E 023°38'0 0.0
2017-Feb-23 06:32N 37°56' E 023°38'0 0.0
2017-Feb-23 05:32N 37°56' E 023°38'0 0.0
2017-Feb-23 04:32N 37°56' E 023°38'1111.0
2017-Feb-23 03:34N 37°46' E 023°42'2120.7
2017-Feb-23 02:32N 37°38' E 024°07'10 0.3
2017-Feb-21 19:28N 37°38' E 023°54'1718.1
2017-Feb-21 18:34N 37°48' E 023°38'8 8.0
2017-Feb-21 17:33N 37°56' E 023°38'0 0.0
2017-Feb-21 16:33N 37°56' E 023°38'0 0.0
2017-Feb-21 15:33N 37°56' E 023°38'0 0.0
2017-Feb-21 14:30N 37°56' E 023°38'0 0.0
2017-Feb-21 13:33N 37°56' E 023°38'0 0.0
2017-Feb-21 12:33N 37°56' E 023°38'0 0.0
2017-Feb-21 11:33N 37°56' E 023°38'0 0.0
2017-Feb-21 08:33N 37°56' E 023°38'0 0.0
2017-Feb-21 07:33N 37°56' E 023°38'0 0.0
2017-Feb-21 06:32N 37°56' E 023°38'0 0.0
2017-Feb-21 05:32N 37°56' E 023°38'5 5.0
2017-Feb-21 04:34N 37°52' E 023°39'2423.5
2017-Feb-21 03:32N 37°38' E 024°04'7 0.2
2017-Feb-19 19:33N 37°38' E 023°55'1717.1
2017-Feb-19 18:33N 37°48' E 023°38'8 8.1
2017-Feb-19 17:33N 37°56' E 023°38'0 0.0
2017-Feb-19 16:33N 37°56' E 023°38'0 0.0
2017-Feb-19 15:33N 37°56' E 023°38'0 0.0
2017-Feb-19 14:30N 37°56' E 023°38'0 0.0
2017-Feb-19 13:33N 37°56' E 023°38'0 0.0
2017-Feb-19 12:33N 37°56' E 023°38'0 0.0
2017-Feb-19 11:33N 37°56' E 023°38'0 0.0
2017-Feb-19 10:32N 37°56' E 023°38'0 0.0
2017-Feb-19 09:32N 37°56' E 023°38'0 0.0
2017-Feb-19 08:32N 37°56' E 023°38'0 0.0
2017-Feb-19 07:32N 37°56' E 023°38'0 0.0
2017-Feb-19 06:32N 37°56' E 023°38'0 0.0
2017-Feb-19 05:32N 37°56' E 023°38'0 0.0
2017-Feb-19 04:32N 37°56' E 023°38'0 0.0
2017-Feb-19 03:32N 37°56' E 023°38'0 0.0
2017-Feb-19 02:31N 37°56' E 023°38'0 0.0
2017-Feb-19 01:31N 37°56' E 023°38'0 0.0
2017-Feb-19 00:31N 37°56' E 023°38'0 0.0
2017-Feb-18 23:32N 37°56' E 023°38'0 0.0
2017-Feb-18 22:32N 37°56' E 023°38'0 0.0
2017-Feb-18 21:28N 37°56' E 023°38'0 0.0
2017-Feb-18 20:31N 37°56' E 023°38'0 0.0
2017-Feb-18 19:31N 37°56' E 023°38'0 0.0
2017-Feb-18 18:31N 37°56' E 023°38'0 0.0
2017-Feb-18 17:31N 37°56' E 023°38'0 0.0
2017-Feb-18 16:31N 37°56' E 023°38'0 0.0
2017-Feb-18 15:28N 37°56' E 023°38'0 0.0
2017-Feb-18 14:31N 37°56' E 023°38'0 0.0
2017-Feb-18 13:31N 37°56' E 023°38'0 0.0
2017-Feb-18 12:33N 37°56' E 023°38'0 0.0
2017-Feb-18 11:33N 37°56' E 023°38'0 0.0
2017-Feb-18 10:33N 37°56' E 023°38'0 0.0
2017-Feb-18 09:33N 37°56' E 023°38'0 0.0
2017-Feb-18 08:33N 37°56' E 023°38'0 0.0
2017-Feb-18 07:33N 37°56' E 023°38'0 0.0
2017-Feb-18 06:33N 37°56' E 023°38'0 0.0
2017-Feb-18 05:33N 37°56' E 023°38'0 0.0
2017-Feb-18 04:33N 37°56' E 023°38'10 9.8
2017-Feb-18 03:34N 37°47' E 023°42'2220.6
2017-Feb-18 02:30N 37°38' E 024°07'12 0.4
2017-Feb-16 19:34N 37°38' E 023°52'1818.4
2017-Feb-16 18:34N 37°52' E 023°37'4 4.2
2017-Feb-16 17:31N 37°56' E 023°38'0 0.0
2017-Feb-16 16:31N 37°56' E 023°38'0 0.0
2017-Feb-16 15:31N 37°56' E 023°38'0 0.0
2017-Feb-16 14:31N 37°56' E 023°38'0 0.0
2017-Feb-16 13:31N 37°56' E 023°38'0 0.0
2017-Feb-16 12:34N 37°56' E 023°38'0 0.0
2017-Feb-16 11:33N 37°56' E 023°38'0 0.0
2017-Feb-16 10:33N 37°56' E 023°38'0 0.0
2017-Feb-16 09:33N 37°56' E 023°38'0 0.0
2017-Feb-16 08:33N 37°56' E 023°38'0 0.0
2017-Feb-16 07:33N 37°56' E 023°38'0 0.0
2017-Feb-16 06:33N 37°56' E 023°38'0 0.0
2017-Feb-16 05:33N 37°56' E 023°38'0 0.0
2017-Feb-16 04:33N 37°56' E 023°38'1212.3
2017-Feb-16 03:33N 37°45' E 023°43'2020.3
2017-Feb-16 02:33N 37°38' E 024°07'  
Track history (hours):
 
Tides and Currents Weather Stations Pressure Air Temp Water Temp Dewpoint Dewpoint Depression Visibility Wind Speed Wind Dir Waves Ship Positions

Blue Star 1

Last reported at 2017-Feb-25 13:34 UTC. Time now 2017-Feb-25 13:48 UTC.
Position N 37°21' E 024°55'.

Length 176 m; draft 6.5 m.

Type: Passenger vessel. MMSI: 239710000.

Date/timePositionNaut miles runAvg speedWind from/ knotsBaromVisibWave heightAir tempDewpointWater temp
2017-Feb-25 13:34N 37°21' E 024°55'5124.7
2017-Feb-25 11:29N 37°38' E 023°54'1920.5
2017-Feb-25 10:34N 37°51' E 023°37'6 5.5
2017-Feb-25 09:33N 37°56' E 023°38'0 0.0
2017-Feb-25 08:31N 37°56' E 023°38'0 0.0
2017-Feb-25 07:31N 37°56' E 023°38'0 0.0
2017-Feb-25 06:31N 37°56' E 023°38'0 0.0
2017-Feb-25 05:33N 37°56' E 023°38'0 0.0
2017-Feb-25 04:33N 37°56' E 023°38'1211.6
2017-Feb-25 03:34N 37°46' E 023°43'2619.1
2017-Feb-25 02:11N 37°44' E 024°16'19 0.6
2017-Feb-23 19:32N 37°38' E 023°53'1616.9
2017-Feb-23 18:33N 37°49' E 023°38'8 7.6
2017-Feb-23 17:33N 37°56' E 023°38'0 0.0
2017-Feb-23 16:33N 37°56' E 023°38'0 0.0
2017-Feb-23 15:33N 37°56' E 023°38'0 0.0
2017-Feb-23 14:33N 37°56' E 023°38'0 0.0
2017-Feb-23 13:24N 37°56' E 023°38'0 0.0
2017-Feb-23 12:33N 37°56' E 023°38'0 0.0
2017-Feb-23 11:33N 37°56' E 023°38'0 0.0
2017-Feb-23 10:33N 37°56' E 023°38'0 0.0
2017-Feb-23 09:29N 37°56' E 023°38'0 0.0
2017-Feb-23 08:32N 37°56' E 023°38'0 0.0
2017-Feb-23 07:32N 37°56' E 023°38'0 0.0
2017-Feb-23 06:32N 37°56' E 023°38'0 0.0
2017-Feb-23 05:32N 37°56' E 023°38'0 0.0
2017-Feb-23 04:32N 37°56' E 023°38'1111.0
2017-Feb-23 03:34N 37°46' E 023°42'2120.7
2017-Feb-23 02:32N 37°38' E 024°07'10 0.3
2017-Feb-21 19:28N 37°38' E 023°54'1718.1
2017-Feb-21 18:34N 37°48' E 023°38'8 8.0
2017-Feb-21 17:33N 37°56' E 023°38'0 0.0
2017-Feb-21 16:33N 37°56' E 023°38'0 0.0
2017-Feb-21 15:33N 37°56' E 023°38'0 0.0
2017-Feb-21 14:30N 37°56' E 023°38'0 0.0
2017-Feb-21 13:33N 37°56' E 023°38'0 0.0
2017-Feb-21 12:33N 37°56' E 023°38'0 0.0
2017-Feb-21 11:33N 37°56' E 023°38'0 0.0
2017-Feb-21 08:33N 37°56' E 023°38'0 0.0
2017-Feb-21 07:33N 37°56' E 023°38'0 0.0
2017-Feb-21 06:32N 37°56' E 023°38'0 0.0
2017-Feb-21 05:32N 37°56' E 023°38'5 5.0
2017-Feb-21 04:34N 37°52' E 023°39'2423.5
2017-Feb-21 03:32N 37°38' E 024°04'7 0.2
2017-Feb-19 19:33N 37°38' E 023°55'1717.1
2017-Feb-19 18:33N 37°48' E 023°38'8 8.1
2017-Feb-19 17:33N 37°56' E 023°38'0 0.0
2017-Feb-19 16:33N 37°56' E 023°38'0 0.0
2017-Feb-19 15:33N 37°56' E 023°38'0 0.0
2017-Feb-19 14:30N 37°56' E 023°38'0 0.0
2017-Feb-19 13:33N 37°56' E 023°38'0 0.0
2017-Feb-19 12:33N 37°56' E 023°38'0 0.0
2017-Feb-19 11:33N 37°56' E 023°38'0 0.0
2017-Feb-19 10:32N 37°56' E 023°38'0 0.0
2017-Feb-19 09:32N 37°56' E 023°38'0 0.0
2017-Feb-19 08:32N 37°56' E 023°38'0 0.0
2017-Feb-19 07:32N 37°56' E 023°38'0 0.0
2017-Feb-19 06:32N 37°56' E 023°38'0 0.0
2017-Feb-19 05:32N 37°56' E 023°38'0 0.0
2017-Feb-19 04:32N 37°56' E 023°38'0 0.0
2017-Feb-19 03:32N 37°56' E 023°38'0 0.0
2017-Feb-19 02:31N 37°56' E 023°38'0 0.0
2017-Feb-19 01:31N 37°56' E 023°38'0 0.0
2017-Feb-19 00:31N 37°56' E 023°38'0 0.0
2017-Feb-18 23:32N 37°56' E 023°38'0 0.0
2017-Feb-18 22:32N 37°56' E 023°38'0 0.0
2017-Feb-18 21:28N 37°56' E 023°38'0 0.0
2017-Feb-18 20:31N 37°56' E 023°38'0 0.0
2017-Feb-18 19:31N 37°56' E 023°38'0 0.0
2017-Feb-18 18:31N 37°56' E 023°38'0 0.0
2017-Feb-18 17:31N 37°56' E 023°38'0 0.0
2017-Feb-18 16:31N 37°56' E 023°38'0 0.0
2017-Feb-18 15:28N 37°56' E 023°38'0 0.0
2017-Feb-18 14:31N 37°56' E 023°38'0 0.0
2017-Feb-18 13:31N 37°56' E 023°38'0 0.0
2017-Feb-18 12:33N 37°56' E 023°38'0 0.0
2017-Feb-18 11:33N 37°56' E 023°38'0 0.0
2017-Feb-18 10:33N 37°56' E 023°38'0 0.0
2017-Feb-18 09:33N 37°56' E 023°38'0 0.0
2017-Feb-18 08:33N 37°56' E 023°38'0 0.0
2017-Feb-18 07:33N 37°56' E 023°38'0 0.0
2017-Feb-18 06:33N 37°56' E 023°38'0 0.0
2017-Feb-18 05:33N 37°56' E 023°38'0 0.0
2017-Feb-18 04:33N 37°56' E 023°38'10 9.8
2017-Feb-18 03:34N 37°47' E 023°42'2220.6
2017-Feb-18 02:30N 37°38' E 024°07'12 0.4
2017-Feb-16 19:34N 37°38' E 023°52'1818.4
2017-Feb-16 18:34N 37°52' E 023°37'4 4.2
2017-Feb-16 17:31N 37°56' E 023°38'0 0.0
2017-Feb-16 16:31N 37°56' E 023°38'0 0.0
2017-Feb-16 15:31N 37°56' E 023°38'0 0.0
2017-Feb-16 14:31N 37°56' E 023°38'0 0.0
2017-Feb-16 13:31N 37°56' E 023°38'0 0.0
2017-Feb-16 12:34N 37°56' E 023°38'0 0.0
2017-Feb-16 11:33N 37°56' E 023°38'0 0.0
2017-Feb-16 10:33N 37°56' E 023°38'0 0.0
2017-Feb-16 09:33N 37°56' E 023°38'0 0.0
2017-Feb-16 08:33N 37°56' E 023°38'0 0.0
2017-Feb-16 07:33N 37°56' E 023°38'0 0.0
2017-Feb-16 06:33N 37°56' E 023°38'0 0.0
2017-Feb-16 05:33N 37°56' E 023°38'0 0.0
2017-Feb-16 04:33N 37°56' E 023°38'1212.3
2017-Feb-16 03:33N 37°45' E 023°43'2020.3
2017-Feb-16 02:33N 37°38' E 024°07'  

Dump ship's entire track history